Ashton, Idaho
Current Conditions -  °F | °C
As of 2:53 AM on Sunday 23 Nov 2014 (Local Time) from KRXE Reporting Station
Overcast Overcast  
Wind Chill: 25°   Ceiling: 7500
Heat Index: 30°   Visibility: 10mi
Dew Point: 28°   Wind: 5mph
Humidity: 92%   Direction: 320°NW
Pressure: 29.91"   Gusts: NA
Location:  44.07°N, 111.45°W
Report Text: KRXE 230953Z AUTO 32004KT 10SM OVC075 M01/M02 A2991 RMK AO2 SLP143 T10111022
Loading
Personal Weather Stations






























Interactive Weather Map New forecast layout! Learn more

10-Day Weather Forecast

Advertisements
Track Severe Weather on mobile